sensor_id;sensor_type;location;lat;lon;timestamp;pressure;altitude;pressure_sealevel;temperature;humidity
53011;BME280;42803;55.762;38.084;2022-08-19T00:02:01;100155.13;;;18.83;71.12
53011;BME280;42803;55.762;38.084;2022-08-19T00:04:32;100152.97;;;18.75;71.09
53011;BME280;42803;55.762;38.084;2022-08-19T00:07:05;100163.16;;;18.69;71.10
53011;BME280;42803;55.762;38.084;2022-08-19T00:09:35;100161.75;;;18.60;71.28
53011;BME280;42803;55.762;38.084;2022-08-19T00:12:05;100165.78;;;18.53;71.62
53011;BME280;42803;55.762;38.084;2022-08-19T00:14:34;100169.97;;;18.49;71.66
53011;BME280;42803;55.762;38.084;2022-08-19T00:17:04;100167.00;;;18.43;71.78
53011;BME280;42803;55.762;38.084;2022-08-19T00:19:34;100170.75;;;18.47;71.67
53011;BME280;42803;55.762;38.084;2022-08-19T00:22:04;100178.38;;;18.42;72.16
53011;BME280;42803;55.762;38.084;2022-08-19T00:24:35;100189.88;;;18.43;72.36
53011;BME280;42803;55.762;38.084;2022-08-19T00:27:05;100191.72;;;18.44;72.67
53011;BME280;42803;55.762;38.084;2022-08-19T00:29:53;100180.78;;;18.38;72.22
53011;BME280;42803;55.762;38.084;2022-08-19T00:32:22;100183.88;;;18.31;72.52
53011;BME280;42803;55.762;38.084;2022-08-19T00:34:53;100180.91;;;18.24;73.06
53011;BME280;42803;55.762;38.084;2022-08-19T00:37:23;100177.91;;;18.18;73.16
53011;BME280;42803;55.762;38.084;2022-08-19T00:39:55;100187.38;;;18.15;73.07
53011;BME280;42803;55.762;38.084;2022-08-19T00:42:24;100190.75;;;18.12;72.98
53011;BME280;42803;55.762;38.084;2022-08-19T00:44:55;100197.50;;;18.07;72.76
53011;BME280;42803;55.762;38.084;2022-08-19T00:47:24;100195.50;;;18.03;72.82
53011;BME280;42803;55.762;38.084;2022-08-19T00:49:56;100208.53;;;18.00;73.07
53011;BME280;42803;55.762;38.084;2022-08-19T00:52:29;100213.28;;;17.91;73.32
53011;BME280;42803;55.762;38.084;2022-08-19T00:55:01;100203.81;;;17.80;73.80
53011;BME280;42803;55.762;38.084;2022-08-19T00:57:32;100214.13;;;17.75;74.14
53011;BME280;42803;55.762;38.084;2022-08-19T01:00:07;100213.31;;;17.63;74.74
53011;BME280;42803;55.762;38.084;2022-08-19T01:02:37;100210.41;;;17.58;74.92
53011;BME280;42803;55.762;38.084;2022-08-19T01:05:11;100210.53;;;17.60;74.63
53011;BME280;42803;55.762;38.084;2022-08-19T01:07:40;100206.59;;;17.53;74.67
53011;BME280;42803;55.762;38.084;2022-08-19T01:10:16;100215.03;;;17.47;75.04
53011;BME280;42803;55.762;38.084;2022-08-19T01:12:47;100217.66;;;17.47;74.66
53011;BME280;42803;55.762;38.084;2022-08-19T01:15:20;100215.22;;;17.50;74.55
53011;BME280;42803;55.762;38.084;2022-08-19T01:17:50;100212.69;;;17.52;74.56
53011;BME280;42803;55.762;38.084;2022-08-19T01:20:22;100220.59;;;17.52;74.58
53011;BME280;42803;55.762;38.084;2022-08-19T01:22:55;100212.50;;;17.49;75.09
53011;BME280;42803;55.762;38.084;2022-08-19T01:25:27;100207.22;;;17.49;74.79
53011;BME280;42803;55.762;38.084;2022-08-19T01:27:59;100214.13;;;17.47;74.20
53011;BME280;42803;55.762;38.084;2022-08-19T01:30:37;100213.03;;;17.43;74.97
53011;BME280;42803;55.762;38.084;2022-08-19T01:33:11;100217.19;;;17.40;74.94
53011;BME280;42803;55.762;38.084;2022-08-19T01:35:40;100218.94;;;17.39;75.10
53011;BME280;42803;55.762;38.084;2022-08-19T01:38:21;100219.03;;;17.41;75.10
53011;BME280;42803;55.762;38.084;2022-08-19T01:40:51;100214.47;;;17.38;75.06
53011;BME280;42803;55.762;38.084;2022-08-19T01:43:21;100220.66;;;17.39;75.20
53011;BME280;42803;55.762;38.084;2022-08-19T01:45:49;100213.75;;;17.41;74.96
53011;BME280;42803;55.762;38.084;2022-08-19T01:48:20;100210.94;;;17.38;75.20
53011;BME280;42803;55.762;38.084;2022-08-19T01:50:49;100211.91;;;17.40;74.83
53011;BME280;42803;55.762;38.084;2022-08-19T01:53:19;100214.56;;;17.40;75.21
53011;BME280;42803;55.762;38.084;2022-08-19T01:55:53;100220.84;;;17.42;75.08
53011;BME280;42803;55.762;38.084;2022-08-19T01:58:26;100221.88;;;17.44;75.26
53011;BME280;42803;55.762;38.084;2022-08-19T02:00:57;100214.94;;;17.46;74.95
53011;BME280;42803;55.762;38.084;2022-08-19T02:03:26;100219.41;;;17.47;74.85
53011;BME280;42803;55.762;38.084;2022-08-19T02:05:57;100220.22;;;17.46;74.82
53011;BME280;42803;55.762;38.084;2022-08-19T02:08:30;100219.31;;;17.45;75.38
53011;BME280;42803;55.762;38.084;2022-08-19T02:10:59;100221.97;;;17.45;75.19
53011;BME280;42803;55.762;38.084;2022-08-19T02:13:28;100215.78;;;17.45;75.36
53011;BME280;42803;55.762;38.084;2022-08-19T02:16:17;100223.78;;;17.46;75.15
53011;BME280;42803;55.762;38.084;2022-08-19T02:18:47;100219.50;;;17.48;75.04
53011;BME280;42803;55.762;38.084;2022-08-19T02:21:17;100225.50;;;17.46;75.11
53011;BME280;42803;55.762;38.084;2022-08-19T02:23:49;100223.78;;;17.46;75.02
53011;BME280;42803;55.762;38.084;2022-08-19T02:26:18;100220.50;;;17.50;74.96
53011;BME280;42803;55.762;38.084;2022-08-19T02:28:47;100231.31;;;17.55;74.52
53011;BME280;42803;55.762;38.084;2022-08-19T02:31:19;100221.59;;;17.54;74.64
53011;BME280;42803;55.762;38.084;2022-08-19T02:33:52;100227.16;;;17.59;74.32
53011;BME280;42803;55.762;38.084;2022-08-19T02:36:24;100235.44;;;17.65;73.99
53011;BME280;42803;55.762;38.084;2022-08-19T02:38:55;100240.03;;;17.67;73.83
53011;BME280;42803;55.762;38.084;2022-08-19T02:41:24;100233.34;;;17.74;73.69
53011;BME280;42803;55.762;38.084;2022-08-19T02:43:54;100239.88;;;17.79;73.29
53011;BME280;42803;55.762;38.084;2022-08-19T02:46:45;100232.88;;;17.80;73.40
53011;BME280;42803;55.762;38.084;2022-08-19T02:49:14;100244.41;;;17.82;73.34
53011;BME280;42803;55.762;38.084;2022-08-19T02:51:45;100237.31;;;17.81;73.71
53011;BME280;42803;55.762;38.084;2022-08-19T02:54:16;100245.25;;;17.81;73.38
53011;BME280;42803;55.762;38.084;2022-08-19T02:56:45;100240.97;;;17.83;73.26
53011;BME280;42803;55.762;38.084;2022-08-19T02:59:14;100251.34;;;17.80;73.44
53011;BME280;42803;55.762;38.084;2022-08-19T03:01:43;100235.50;;;17.80;73.60
53011;BME280;42803;55.762;38.084;2022-08-19T03:04:15;100239.97;;;17.81;73.17
53011;BME280;42803;55.762;38.084;2022-08-19T03:06:45;100251.34;;;17.80;73.38
53011;BME280;42803;55.762;38.084;2022-08-19T03:09:16;100241.69;;;17.80;73.57
53011;BME280;42803;55.762;38.084;2022-08-19T03:11:46;100246.91;;;17.78;73.50
53011;BME280;42803;55.762;38.084;2022-08-19T03:14:19;100247.69;;;17.77;73.79
53011;BME280;42803;55.762;38.084;2022-08-19T03:16:50;100251.16;;;17.76;73.80
53011;BME280;42803;55.762;38.084;2022-08-19T03:19:20;100246.16;;;17.81;73.66
53011;BME280;42803;55.762;38.084;2022-08-19T03:21:50;100250.72;;;17.84;73.67
53011;BME280;42803;55.762;38.084;2022-08-19T03:24:21;100246.59;;;17.89;73.53
53011;BME280;42803;55.762;38.084;2022-08-19T03:26:53;100247.00;;;17.95;73.35
53011;BME280;42803;55.762;38.084;2022-08-19T03:29:26;100249.91;;;17.99;73.13
53011;BME280;42803;55.762;38.084;2022-08-19T03:31:58;100246.63;;;18.03;72.99
53011;BME280;42803;55.762;38.084;2022-08-19T03:34:30;100247.00;;;18.10;72.86
53011;BME280;42803;55.762;38.084;2022-08-19T03:37:04;100246.97;;;18.24;72.82
53011;BME280;42803;55.762;38.084;2022-08-19T03:39:36;100255.16;;;18.29;72.46
53011;BME280;42803;55.762;38.084;2022-08-19T03:42:05;100247.50;;;18.34;72.30
53011;BME280;42803;55.762;38.084;2022-08-19T03:44:55;100242.22;;;18.34;72.28
53011;BME280;42803;55.762;38.084;2022-08-19T03:47:23;100244.22;;;18.38;71.87
53011;BME280;42803;55.762;38.084;2022-08-19T03:49:53;100242.91;;;18.46;71.87
53011;BME280;42803;55.762;38.084;2022-08-19T03:52:22;100247.09;;;18.57;71.59
53011;BME280;42803;55.762;38.084;2022-08-19T03:54:52;100251.06;;;18.65;71.34
53011;BME280;42803;55.762;38.084;2022-08-19T03:57:21;100250.75;;;18.74;71.13
53011;BME280;42803;55.762;38.084;2022-08-19T03:59:58;100243.75;;;18.91;70.71
53011;BME280;42803;55.762;38.084;2022-08-19T04:02:40;100248.72;;;19.01;70.32
53011;BME280;42803;55.762;38.084;2022-08-19T04:05:27;100251.44;;;19.19;69.91
53011;BME280;42803;55.762;38.084;2022-08-19T04:07:57;100244.75;;;19.42;69.44
53011;BME280;42803;55.762;38.084;2022-08-19T04:10:28;100250.06;;;19.58;68.53
53011;BME280;42803;55.762;38.084;2022-08-19T04:12:57;100244.31;;;19.65;68.32
53011;BME280;42803;55.762;38.084;2022-08-19T04:15:26;100247.88;;;19.84;67.58
53011;BME280;42803;55.762;38.084;2022-08-19T04:17:56;100251.59;;;20.04;66.89
53011;BME280;42803;55.762;38.084;2022-08-19T04:20:25;100252.44;;;20.20;66.85
53011;BME280;42803;55.762;38.084;2022-08-19T04:22:56;100261.22;;;20.37;66.15
53011;BME280;42803;55.762;38.084;2022-08-19T04:25:25;100268.53;;;20.59;66.01
53011;BME280;42803;55.762;38.084;2022-08-19T04:27:56;100269.88;;;20.87;65.19
53011;BME280;42803;55.762;38.084;2022-08-19T04:30:25;100265.03;;;20.96;64.92
53011;BME280;42803;55.762;38.084;2022-08-19T04:32:54;100281.22;;;21.02;64.64
53011;BME280;42803;55.762;38.084;2022-08-19T04:35:23;100282.34;;;20.88;64.72
53011;BME280;42803;55.762;38.084;2022-08-19T04:37:52;100280.69;;;21.09;64.58
53011;BME280;42803;55.762;38.084;2022-08-19T04:40:21;100273.03;;;21.15;64.17
53011;BME280;42803;55.762;38.084;2022-08-19T04:43:08;100272.75;;;21.47;63.61
53011;BME280;42803;55.762;38.084;2022-08-19T04:45:39;100270.72;;;21.41;63.92
53011;BME280;42803;55.762;38.084;2022-08-19T04:48:11;100270.56;;;21.38;63.41
53011;BME280;42803;55.762;38.084;2022-08-19T04:50:54;100270.31;;;21.14;63.62
53011;BME280;42803;55.762;38.084;2022-08-19T04:53:25;100264.22;;;21.16;64.39
53011;BME280;42803;55.762;38.084;2022-08-19T04:56:06;100276.75;;;21.19;63.97
53011;BME280;42803;55.762;38.084;2022-08-19T04:58:38;100266.72;;;21.13;63.69
53011;BME280;42803;55.762;38.084;2022-08-19T05:01:11;100268.47;;;21.13;64.13
53011;BME280;42803;55.762;38.084;2022-08-19T05:03:40;100273.03;;;21.15;64.27
53011;BME280;42803;55.762;38.084;2022-08-19T05:06:13;100270.03;;;21.45;63.42
53011;BME280;42803;55.762;38.084;2022-08-19T05:08:43;100267.50;;;21.68;62.81
53011;BME280;42803;55.762;38.084;2022-08-19T05:11:14;100264.81;;;21.87;62.39
53011;BME280;42803;55.762;38.084;2022-08-19T05:13:45;100265.50;;;22.02;61.80
53011;BME280;42803;55.762;38.084;2022-08-19T05:16:15;100259.03;;;21.97;61.97
53011;BME280;42803;55.762;38.084;2022-08-19T05:18:45;100254.19;;;21.87;61.70
53011;BME280;42803;55.762;38.084;2022-08-19T05:21:32;100252.75;;;22.14;61.76
53011;BME280;42803;55.762;38.084;2022-08-19T05:24:20;100262.59;;;22.38;60.96
53011;BME280;42803;55.762;38.084;2022-08-19T05:26:51;100259.91;;;22.36;60.32
53011;BME280;42803;55.762;38.084;2022-08-19T05:29:25;100258.63;;;22.28;60.52
53011;BME280;42803;55.762;38.084;2022-08-19T05:32:04;100261.94;;;22.02;61.41
53011;BME280;42803;55.762;38.084;2022-08-19T05:34:36;100260.59;;;22.13;61.43
53011;BME280;42803;55.762;38.084;2022-08-19T05:37:07;100259.22;;;22.42;60.91
53011;BME280;42803;55.762;38.084;2022-08-19T05:39:37;100260.63;;;22.55;60.29
53011;BME280;42803;55.762;38.084;2022-08-19T05:42:09;100258.69;;;22.72;59.89
53011;BME280;42803;55.762;38.084;2022-08-19T05:44:42;100255.53;;;22.59;60.42
53011;BME280;42803;55.762;38.084;2022-08-19T05:47:13;100257.19;;;22.57;60.17
53011;BME280;42803;55.762;38.084;2022-08-19T05:49:42;100262.06;;;22.47;60.50
53011;BME280;42803;55.762;38.084;2022-08-19T05:52:14;100267.78;;;22.35;60.73
53011;BME280;42803;55.762;38.084;2022-08-19T05:54:46;100264.56;;;22.42;60.47
53011;BME280;42803;55.762;38.084;2022-08-19T05:57:18;100266.63;;;22.49;60.46
53011;BME280;42803;55.762;38.084;2022-08-19T05:59:49;100267.56;;;22.72;59.87
53011;BME280;42803;55.762;38.084;2022-08-19T06:02:24;100268.28;;;22.68;60.25
53011;BME280;42803;55.762;38.084;2022-08-19T06:04:53;100273.25;;;22.59;60.65
53011;BME280;42803;55.762;38.084;2022-08-19T06:07:25;100269.25;;;22.91;60.39
53011;BME280;42803;55.762;38.084;2022-08-19T06:09:55;100271.78;;;23.33;59.20
53011;BME280;42803;55.762;38.084;2022-08-19T06:12:28;100268.72;;;23.46;59.02
53011;BME280;42803;55.762;38.084;2022-08-19T06:15:04;100273.97;;;23.91;58.33
53011;BME280;42803;55.762;38.084;2022-08-19T06:17:34;100274.19;;;23.97;57.51
53011;BME280;42803;55.762;38.084;2022-08-19T06:20:04;100282.84;;;24.41;56.51
53011;BME280;42803;55.762;38.084;2022-08-19T06:22:37;100279.25;;;24.39;56.42
53011;BME280;42803;55.762;38.084;2022-08-19T06:25:08;100276.84;;;24.23;56.03
53011;BME280;42803;55.762;38.084;2022-08-19T06:27:38;100276.00;;;23.98;56.05
53011;BME280;42803;55.762;38.084;2022-08-19T06:30:29;100291.16;;;24.25;56.26
53011;BME280;42803;55.762;38.084;2022-08-19T06:32:58;100275.63;;;24.13;56.25
53011;BME280;42803;55.762;38.084;2022-08-19T06:35:27;100281.69;;;23.83;55.92
53011;BME280;42803;55.762;38.084;2022-08-19T06:37:56;100278.03;;;24.05;56.55
53011;BME280;42803;55.762;38.084;2022-08-19T06:40:26;100275.53;;;24.10;56.17
53011;BME280;42803;55.762;38.084;2022-08-19T06:42:55;100272.47;;;23.99;56.29
53011;BME280;42803;55.762;38.084;2022-08-19T06:45:29;100273.06;;;23.91;56.69
53011;BME280;42803;55.762;38.084;2022-08-19T06:48:02;100289.00;;;23.89;56.39
53011;BME280;42803;55.762;38.084;2022-08-19T06:50:31;100280.66;;;23.80;56.47
53011;BME280;42803;55.762;38.084;2022-08-19T06:53:03;100282.47;;;23.81;56.31
53011;BME280;42803;55.762;38.084;2022-08-19T06:55:33;100281.91;;;23.90;56.83
53011;BME280;42803;55.762;38.084;2022-08-19T06:58:03;100277.72;;;23.72;56.40
53011;BME280;42803;55.762;38.084;2022-08-19T07:00:33;100283.59;;;23.64;56.49
53011;BME280;42803;55.762;38.084;2022-08-19T07:03:02;100276.69;;;23.46;56.44
53011;BME280;42803;55.762;38.084;2022-08-19T07:05:39;100276.03;;;23.74;56.46
53011;BME280;42803;55.762;38.084;2022-08-19T07:08:12;100281.34;;;23.98;55.67
53011;BME280;42803;55.762;38.084;2022-08-19T07:10:43;100276.06;;;24.25;55.19
53011;BME280;42803;55.762;38.084;2022-08-19T07:13:13;100281.66;;;24.07;54.08
53011;BME280;42803;55.762;38.084;2022-08-19T07:15:43;100289.63;;;23.82;55.06
53011;BME280;42803;55.762;38.084;2022-08-19T07:18:14;100286.69;;;23.74;55.42
53011;BME280;42803;55.762;38.084;2022-08-19T07:20:43;100286.72;;;24.00;55.19
53011;BME280;42803;55.762;38.084;2022-08-19T07:23:13;100279.16;;;24.12;55.06
53011;BME280;42803;55.762;38.084;2022-08-19T07:25:43;100287.97;;;24.35;54.29
53011;BME280;42803;55.762;38.084;2022-08-19T07:28:19;100293.41;;;24.64;54.05
53011;BME280;42803;55.762;38.084;2022-08-19T07:30:55;100287.44;;;24.72;53.45
53011;BME280;42803;55.762;38.084;2022-08-19T07:33:24;100296.44;;;25.03;53.11
53011;BME280;42803;55.762;38.084;2022-08-19T07:35:54;100284.16;;;25.08;53.34
53011;BME280;42803;55.762;38.084;2022-08-19T07:38:23;100295.63;;;25.33;53.07
53011;BME280;42803;55.762;38.084;2022-08-19T07:40:53;100298.19;;;25.58;51.17
53011;BME280;42803;55.762;38.084;2022-08-19T07:43:22;100303.25;;;25.19;51.51
53011;BME280;42803;55.762;38.084;2022-08-19T07:46:03;100300.47;;;25.16;51.50
53011;BME280;42803;55.762;38.084;2022-08-19T07:48:32;100300.47;;;25.16;50.71
53011;BME280;42803;55.762;38.084;2022-08-19T07:51:04;100307.97;;;25.00;51.62
53011;BME280;42803;55.762;38.084;2022-08-19T07:53:35;100314.16;;;25.26;51.05
53011;BME280;42803;55.762;38.084;2022-08-19T07:56:06;100295.38;;;25.53;50.20
53011;BME280;42803;55.762;38.084;2022-08-19T07:58:38;100290.75;;;25.78;50.13
53011;BME280;42803;55.762;38.084;2022-08-19T08:01:10;100304.53;;;25.62;49.98
53011;BME280;42803;55.762;38.084;2022-08-19T08:03:41;100295.72;;;25.66;49.98
53011;BME280;42803;55.762;38.084;2022-08-19T08:06:28;100293.06;;;25.66;50.21
53011;BME280;42803;55.762;38.084;2022-08-19T08:09:31;100297.69;;;25.13;50.22
53011;BME280;42803;55.762;38.084;2022-08-19T08:12:10;100297.91;;;25.19;49.94
53011;BME280;42803;55.762;38.084;2022-08-19T08:15:02;100286.09;;;25.12;50.00
53011;BME280;42803;55.762;38.084;2022-08-19T08:17:36;100299.72;;;25.50;49.92
53011;BME280;42803;55.762;38.084;2022-08-19T08:20:15;100294.97;;;25.70;49.93
53011;BME280;42803;55.762;38.084;2022-08-19T08:22:46;100296.88;;;25.75;48.97
53011;BME280;42803;55.762;38.084;2022-08-19T08:25:33;100315.31;;;25.65;48.64
53011;BME280;42803;55.762;38.084;2022-08-19T08:28:04;100303.44;;;25.55;48.34
53011;BME280;42803;55.762;38.084;2022-08-19T08:30:44;100304.78;;;25.41;48.90
53011;BME280;42803;55.762;38.084;2022-08-19T08:33:20;100310.97;;;25.38;48.75
53011;BME280;42803;55.762;38.084;2022-08-19T08:36:01;100308.75;;;25.25;49.21
53011;BME280;42803;55.762;38.084;2022-08-19T08:38:31;100333.47;;;25.18;49.01
53011;BME280;42803;55.762;38.084;2022-08-19T08:41:16;100322.59;;;25.12;49.84
53011;BME280;42803;55.762;38.084;2022-08-19T08:43:49;100322.88;;;25.21;49.95
53011;BME280;42803;55.762;38.084;2022-08-19T08:46:23;100315.75;;;25.50;49.49
53011;BME280;42803;55.762;38.084;2022-08-19T08:49:05;100320.69;;;25.36;49.56
53011;BME280;42803;55.762;38.084;2022-08-19T08:51:42;100331.44;;;25.11;48.44
53011;BME280;42803;55.762;38.084;2022-08-19T08:54:18;100331.56;;;25.14;48.14
53011;BME280;42803;55.762;38.084;2022-08-19T08:56:49;100316.00;;;25.29;48.05
53011;BME280;42803;55.762;38.084;2022-08-19T08:59:23;100310.22;;;25.44;47.29
53011;BME280;42803;55.762;38.084;2022-08-19T09:01:54;100304.84;;;25.42;45.95
53011;BME280;42803;55.762;38.084;2022-08-19T09:04:24;100326.16;;;25.41;44.98
53011;BME280;42803;55.762;38.084;2022-08-19T09:07:01;100317.59;;;25.52;45.57
53011;BME280;42803;55.762;38.084;2022-08-19T09:10:02;100317.59;;;25.81;44.68
53011;BME280;42803;55.762;38.084;2022-08-19T09:12:39;100317.84;;;25.90;45.09
53011;BME280;42803;55.762;38.084;2022-08-19T09:15:14;100316.84;;;25.87;44.64
53011;BME280;42803;55.762;38.084;2022-08-19T09:17:44;100323.03;;;25.84;45.31
53011;BME280;42803;55.762;38.084;2022-08-19T09:20:20;100315.31;;;25.65;45.48
53011;BME280;42803;55.762;38.084;2022-08-19T09:22:49;100319.91;;;25.69;45.15
53011;BME280;42803;55.762;38.084;2022-08-19T09:25:22;100328.69;;;25.36;42.92
53011;BME280;42803;55.762;38.084;2022-08-19T09:27:56;100326.59;;;25.26;41.77
53011;BME280;42803;55.762;38.084;2022-08-19T09:30:40;100320.75;;;25.38;40.19
53011;BME280;42803;55.762;38.084;2022-08-19T09:33:10;100305.84;;;25.46;39.73
53011;BME280;42803;55.762;38.084;2022-08-19T09:35:40;100308.09;;;25.62;39.66
53011;BME280;42803;55.762;38.084;2022-08-19T09:38:20;100331.19;;;25.60;38.09
53011;BME280;42803;55.762;38.084;2022-08-19T09:40:49;100336.47;;;25.28;39.01
53011;BME280;42803;55.762;38.084;2022-08-19T09:43:18;100323.41;;;25.38;37.47
53011;BME280;42803;55.762;38.084;2022-08-19T09:46:00;100310.66;;;25.58;37.30
53011;BME280;42803;55.762;38.084;2022-08-19T09:48:29;100318.00;;;25.65;37.08
53011;BME280;42803;55.762;38.084;2022-08-19T09:51:05;100321.97;;;25.79;37.49
53011;BME280;42803;55.762;38.084;2022-08-19T09:53:39;100319.50;;;25.85;38.32
53011;BME280;42803;55.762;38.084;2022-08-19T09:56:08;100325.50;;;26.08;38.39
53011;BME280;42803;55.762;38.084;2022-08-19T09:58:37;100341.88;;;25.87;38.05
53011;BME280;42803;55.762;38.084;2022-08-19T10:01:07;100339.19;;;25.87;36.30
53011;BME280;42803;55.762;38.084;2022-08-19T10:03:36;100348.63;;;26.06;36.19
53011;BME280;42803;55.762;38.084;2022-08-19T10:06:07;100334.53;;;26.12;36.44
53011;BME280;42803;55.762;38.084;2022-08-19T10:08:44;100358.19;;;25.98;36.17
53011;BME280;42803;55.762;38.084;2022-08-19T10:11:18;100348.56;;;25.74;37.01
53011;BME280;42803;55.762;38.084;2022-08-19T10:14:04;100357.03;;;25.88;37.19
53011;BME280;42803;55.762;38.084;2022-08-19T10:16:36;100349.97;;;25.62;37.67
53011;BME280;42803;55.762;38.084;2022-08-19T10:19:06;100357.78;;;25.54;37.15
53011;BME280;42803;55.762;38.084;2022-08-19T10:21:38;100350.44;;;25.48;37.41
53011;BME280;42803;55.762;38.084;2022-08-19T10:24:07;100359.13;;;25.70;37.57
53011;BME280;42803;55.762;38.084;2022-08-19T10:26:38;100346.63;;;25.69;37.52
53011;BME280;42803;55.762;38.084;2022-08-19T10:29:09;100370.41;;;25.60;37.62
53011;BME280;42803;55.762;38.084;2022-08-19T10:31:58;100375.88;;;25.34;37.18
53011;BME280;42803;55.762;38.084;2022-08-19T10:34:30;100368.22;;;25.46;36.67
53011;BME280;42803;55.762;38.084;2022-08-19T10:37:01;100378.34;;;25.57;36.38
53011;BME280;42803;55.762;38.084;2022-08-19T10:39:37;100382.09;;;25.63;36.36
53011;BME280;42803;55.762;38.084;2022-08-19T10:42:10;100386.50;;;25.61;35.94
53011;BME280;42803;55.762;38.084;2022-08-19T10:44:41;100377.75;;;25.67;36.47
53011;BME280;42803;55.762;38.084;2022-08-19T10:47:10;100373.91;;;25.86;36.67
53011;BME280;42803;55.762;38.084;2022-08-19T10:49:52;100372.34;;;25.94;36.94
53011;BME280;42803;55.762;38.084;2022-08-19T10:52:42;100367.75;;;25.88;36.43
53011;BME280;42803;55.762;38.084;2022-08-19T10:55:19;100362.34;;;25.58;36.36
53011;BME280;42803;55.762;38.084;2022-08-19T10:58:11;100364.22;;;25.32;35.62
53011;BME280;42803;55.762;38.084;2022-08-19T11:00:41;100365.84;;;25.27;36.19
53011;BME280;42803;55.762;38.084;2022-08-19T11:03:11;100368.78;;;25.36;35.41
53011;BME280;42803;55.762;38.084;2022-08-19T11:05:40;100387.41;;;25.33;36.47
53011;BME280;42803;55.762;38.084;2022-08-19T11:08:10;100372.03;;;25.55;36.79
53011;BME280;42803;55.762;38.084;2022-08-19T11:10:51;100363.34;;;25.62;36.58
53011;BME280;42803;55.762;38.084;2022-08-19T11:13:30;100355.03;;;25.81;36.58
53011;BME280;42803;55.762;38.084;2022-08-19T11:16:03;100369.44;;;25.86;36.73
53011;BME280;42803;55.762;38.084;2022-08-19T11:18:36;100364.19;;;25.89;36.90
53011;BME280;42803;55.762;38.084;2022-08-19T11:21:11;100383.69;;;26.15;37.28
53011;BME280;42803;55.762;38.084;2022-08-19T11:23:42;100361.66;;;25.94;37.84
53011;BME280;42803;55.762;38.084;2022-08-19T11:26:11;100370.78;;;26.02;38.90
53011;BME280;42803;55.762;38.084;2022-08-19T11:28:41;100363.63;;;25.99;39.16
53011;BME280;42803;55.762;38.084;2022-08-19T11:31:11;100373.09;;;25.88;39.59
53011;BME280;42803;55.762;38.084;2022-08-19T11:33:41;100373.25;;;25.94;39.79
53011;BME280;42803;55.762;38.084;2022-08-19T11:36:14;100353.59;;;25.92;40.04
53011;BME280;42803;55.762;38.084;2022-08-19T11:38:45;100373.34;;;25.97;40.51
53011;BME280;42803;55.762;38.084;2022-08-19T11:41:17;100344.47;;;25.86;40.62
53011;BME280;42803;55.762;38.084;2022-08-19T11:43:46;100359.47;;;26.11;40.40
53011;BME280;42803;55.762;38.084;2022-08-19T11:46:16;100343.13;;;26.01;40.52
53011;BME280;42803;55.762;38.084;2022-08-19T11:48:45;100352.81;;;26.28;40.68
53011;BME280;42803;55.762;38.084;2022-08-19T11:51:19;100347.31;;;26.22;40.61
53011;BME280;42803;55.762;38.084;2022-08-19T11:53:50;100340.91;;;26.17;40.54
53011;BME280;42803;55.762;38.084;2022-08-19T11:56:20;100328.53;;;25.89;41.18
53011;BME280;42803;55.762;38.084;2022-08-19T11:58:50;100347.91;;;25.80;41.72
53011;BME280;42803;55.762;38.084;2022-08-19T12:01:21;100348.72;;;26.09;41.36
53011;BME280;42803;55.762;38.084;2022-08-19T12:03:52;100352.56;;;26.19;40.75
53011;BME280;42803;55.762;38.084;2022-08-19T12:06:24;100338.06;;;26.11;40.96
53011;BME280;42803;55.762;38.084;2022-08-19T12:08:58;100343.34;;;26.41;40.74
53011;BME280;42803;55.762;38.084;2022-08-19T12:11:27;100336.75;;;26.28;40.75
53011;BME280;42803;55.762;38.084;2022-08-19T12:14:01;100333.13;;;26.26;41.04
53011;BME280;42803;55.762;38.084;2022-08-19T12:16:31;100334.38;;;26.40;41.37
53011;BME280;42803;55.762;38.084;2022-08-19T12:19:01;100328.88;;;26.34;41.19
53011;BME280;42803;55.762;38.084;2022-08-19T12:21:34;100335.78;;;26.58;40.84
53011;BME280;42803;55.762;38.084;2022-08-19T12:24:06;100332.44;;;26.33;40.88
53011;BME280;42803;55.762;38.084;2022-08-19T12:26:35;100327.69;;;26.23;40.73
53011;BME280;42803;55.762;38.084;2022-08-19T12:29:20;100324.31;;;26.30;40.69
53011;BME280;42803;55.762;38.084;2022-08-19T12:31:57;100328.84;;;26.66;40.49
53011;BME280;42803;55.762;38.084;2022-08-19T12:34:31;100323.28;;;26.57;40.91
53011;BME280;42803;55.762;38.084;2022-08-19T12:37:02;100340.72;;;26.44;40.72
53011;BME280;42803;55.762;38.084;2022-08-19T12:39:36;100345.47;;;26.21;41.16
53011;BME280;42803;55.762;38.084;2022-08-19T12:42:06;100336.91;;;26.34;40.83
53011;BME280;42803;55.762;38.084;2022-08-19T12:44:37;100344.78;;;26.60;40.50
53011;BME280;42803;55.762;38.084;2022-08-19T12:47:10;100334.13;;;26.63;40.47
53011;BME280;42803;55.762;38.084;2022-08-19T12:49:41;100332.00;;;26.49;40.81
53011;BME280;42803;55.762;38.084;2022-08-19T12:52:23;100337.59;;;26.59;41.15
53011;BME280;42803;55.762;38.084;2022-08-19T12:54:55;100332.00;;;26.49;41.08
53011;BME280;42803;55.762;38.084;2022-08-19T12:57:26;100325.00;;;26.21;41.02
53011;BME280;42803;55.762;38.084;2022-08-19T12:59:59;100319.28;;;26.42;41.35
53011;BME280;42803;55.762;38.084;2022-08-19T13:02:32;100332.94;;;26.18;41.15
53011;BME280;42803;55.762;38.084;2022-08-19T13:05:08;100330.63;;;26.00;41.79
53011;BME280;42803;55.762;38.084;2022-08-19T13:07:40;100311.94;;;26.02;41.63
53011;BME280;42803;55.762;38.084;2022-08-19T13:10:15;100318.97;;;25.98;41.85